sensor_id;sensor_type;location;lat;lon;timestamp;P1;durP1;ratioP1;P2;durP2;ratioP2
6306;SDS011;3186;54.062;9.962;2023-08-21T00:00:14;5.67;;;3.00;;
6306;SDS011;3186;54.062;9.962;2023-08-21T00:02:40;5.33;;;2.70;;
6306;SDS011;3186;54.062;9.962;2023-08-21T00:05:05;10.93;;;3.17;;
6306;SDS011;3186;54.062;9.962;2023-08-21T00:07:31;5.87;;;2.70;;
6306;SDS011;3186;54.062;9.962;2023-08-21T00:09:57;8.23;;;2.97;;
6306;SDS011;3186;54.062;9.962;2023-08-21T00:12:26;10.90;;;2.50;;
6306;SDS011;3186;54.062;9.962;2023-08-21T00:14:51;5.63;;;2.57;;
6306;SDS011;3186;54.062;9.962;2023-08-21T00:17:17;8.93;;;2.47;;
6306;SDS011;3186;54.062;9.962;2023-08-21T00:19:43;4.77;;;2.77;;
6306;SDS011;3186;54.062;9.962;2023-08-21T00:22:08;5.33;;;3.07;;
6306;SDS011;3186;54.062;9.962;2023-08-21T00:24:34;8.10;;;2.57;;
6306;SDS011;3186;54.062;9.962;2023-08-21T00:26:59;10.53;;;3.00;;
6306;SDS011;3186;54.062;9.962;2023-08-21T00:29:27;3.87;;;2.80;;
6306;SDS011;3186;54.062;9.962;2023-08-21T00:31:52;7.33;;;3.13;;
6306;SDS011;3186;54.062;9.962;2023-08-21T00:34:21;6.53;;;3.27;;
6306;SDS011;3186;54.062;9.962;2023-08-21T00:36:46;5.17;;;2.97;;
6306;SDS011;3186;54.062;9.962;2023-08-21T00:39:12;12.33;;;2.80;;
6306;SDS011;3186;54.062;9.962;2023-08-21T00:41:38;5.50;;;2.63;;
6306;SDS011;3186;54.062;9.962;2023-08-21T00:44:03;7.80;;;3.17;;
6306;SDS011;3186;54.062;9.962;2023-08-21T00:46:30;6.87;;;2.60;;
6306;SDS011;3186;54.062;9.962;2023-08-21T00:48:56;8.93;;;2.70;;
6306;SDS011;3186;54.062;9.962;2023-08-21T00:51:22;6.97;;;2.63;;
6306;SDS011;3186;54.062;9.962;2023-08-21T00:53:49;10.10;;;3.27;;
6306;SDS011;3186;54.062;9.962;2023-08-21T00:56:14;10.30;;;2.73;;
6306;SDS011;3186;54.062;9.962;2023-08-21T00:58:40;8.33;;;3.20;;
6306;SDS011;3186;54.062;9.962;2023-08-21T01:01:07;7.07;;;2.83;;
6306;SDS011;3186;54.062;9.962;2023-08-21T01:03:33;7.07;;;3.20;;
6306;SDS011;3186;54.062;9.962;2023-08-21T01:05:58;5.57;;;2.90;;
6306;SDS011;3186;54.062;9.962;2023-08-21T01:08:47;9.50;;;3.27;;
6306;SDS011;3186;54.062;9.962;2023-08-21T01:11:21;10.30;;;3.57;;
6306;SDS011;3186;54.062;9.962;2023-08-21T01:14:20;10.00;;;3.57;;
6306;SDS011;3186;54.062;9.962;2023-08-21T01:16:52;9.27;;;3.13;;
6306;SDS011;3186;54.062;9.962;2023-08-21T01:19:36;7.37;;;3.60;;
6306;SDS011;3186;54.062;9.962;2023-08-21T01:22:03;11.23;;;3.83;;
6306;SDS011;3186;54.062;9.962;2023-08-21T01:24:29;6.63;;;3.33;;
6306;SDS011;3186;54.062;9.962;2023-08-21T01:26:55;14.10;;;3.10;;
6306;SDS011;3186;54.062;9.962;2023-08-21T01:29:20;6.57;;;3.03;;
6306;SDS011;3186;54.062;9.962;2023-08-21T01:31:47;7.67;;;3.37;;
6306;SDS011;3186;54.062;9.962;2023-08-21T01:34:22;4.50;;;2.53;;
6306;SDS011;3186;54.062;9.962;2023-08-21T01:36:48;8.40;;;3.03;;
6306;SDS011;3186;54.062;9.962;2023-08-21T01:39:14;8.47;;;3.50;;
6306;SDS011;3186;54.062;9.962;2023-08-21T01:41:41;7.60;;;3.43;;
6306;SDS011;3186;54.062;9.962;2023-08-21T01:44:06;5.63;;;3.37;;
6306;SDS011;3186;54.062;9.962;2023-08-21T01:46:32;7.53;;;3.90;;
6306;SDS011;3186;54.062;9.962;2023-08-21T01:48:58;9.63;;;3.57;;
6306;SDS011;3186;54.062;9.962;2023-08-21T01:51:23;9.87;;;4.10;;
6306;SDS011;3186;54.062;9.962;2023-08-21T01:53:49;7.40;;;3.70;;
6306;SDS011;3186;54.062;9.962;2023-08-21T01:56:15;6.77;;;3.37;;
6306;SDS011;3186;54.062;9.962;2023-08-21T01:58:40;9.87;;;4.00;;
6306;SDS011;3186;54.062;9.962;2023-08-21T02:01:06;6.83;;;3.90;;
6306;SDS011;3186;54.062;9.962;2023-08-21T02:03:32;6.97;;;3.83;;
6306;SDS011;3186;54.062;9.962;2023-08-21T02:05:58;7.10;;;3.97;;
6306;SDS011;3186;54.062;9.962;2023-08-21T02:08:25;8.83;;;4.60;;
6306;SDS011;3186;54.062;9.962;2023-08-21T02:10:55;7.63;;;4.20;;
6306;SDS011;3186;54.062;9.962;2023-08-21T02:13:21;9.47;;;4.70;;
6306;SDS011;3186;54.062;9.962;2023-08-21T02:15:46;9.20;;;4.47;;
6306;SDS011;3186;54.062;9.962;2023-08-21T02:18:12;13.07;;;4.67;;
6306;SDS011;3186;54.062;9.962;2023-08-21T02:20:38;11.60;;;5.20;;
6306;SDS011;3186;54.062;9.962;2023-08-21T02:23:03;7.37;;;4.50;;
6306;SDS011;3186;54.062;9.962;2023-08-21T02:25:29;10.30;;;4.73;;
6306;SDS011;3186;54.062;9.962;2023-08-21T02:27:56;9.53;;;4.93;;
6306;SDS011;3186;54.062;9.962;2023-08-21T02:30:23;10.93;;;5.40;;
6306;SDS011;3186;54.062;9.962;2023-08-21T02:32:51;8.53;;;5.00;;
6306;SDS011;3186;54.062;9.962;2023-08-21T02:35:17;6.67;;;4.53;;
6306;SDS011;3186;54.062;9.962;2023-08-21T02:37:43;8.53;;;4.23;;
6306;SDS011;3186;54.062;9.962;2023-08-21T02:40:08;8.77;;;5.27;;
6306;SDS011;3186;54.062;9.962;2023-08-21T02:42:34;9.57;;;4.77;;
6306;SDS011;3186;54.062;9.962;2023-08-21T02:45:01;13.27;;;4.50;;
6306;SDS011;3186;54.062;9.962;2023-08-21T02:47:33;9.73;;;4.70;;
6306;SDS011;3186;54.062;9.962;2023-08-21T02:50:05;8.67;;;5.37;;
6306;SDS011;3186;54.062;9.962;2023-08-21T02:52:33;9.83;;;5.40;;
6306;SDS011;3186;54.062;9.962;2023-08-21T02:54:59;8.10;;;5.60;;
6306;SDS011;3186;54.062;9.962;2023-08-21T02:57:26;8.37;;;5.70;;
6306;SDS011;3186;54.062;9.962;2023-08-21T02:59:52;9.60;;;5.40;;
6306;SDS011;3186;54.062;9.962;2023-08-21T03:02:18;16.13;;;6.13;;
6306;SDS011;3186;54.062;9.962;2023-08-21T03:04:44;11.83;;;6.53;;
6306;SDS011;3186;54.062;9.962;2023-08-21T03:07:11;11.03;;;6.07;;
6306;SDS011;3186;54.062;9.962;2023-08-21T03:09:37;6.77;;;5.73;;
6306;SDS011;3186;54.062;9.962;2023-08-21T03:12:03;8.90;;;6.87;;
6306;SDS011;3186;54.062;9.962;2023-08-21T03:14:29;8.87;;;5.50;;
6306;SDS011;3186;54.062;9.962;2023-08-21T03:16:54;8.37;;;6.27;;
6306;SDS011;3186;54.062;9.962;2023-08-21T03:19:20;11.37;;;6.70;;
6306;SDS011;3186;54.062;9.962;2023-08-21T03:21:46;7.70;;;6.13;;
6306;SDS011;3186;54.062;9.962;2023-08-21T03:24:11;10.03;;;6.40;;
6306;SDS011;3186;54.062;9.962;2023-08-21T03:26:37;7.93;;;5.87;;
6306;SDS011;3186;54.062;9.962;2023-08-21T03:29:03;8.17;;;6.00;;
6306;SDS011;3186;54.062;9.962;2023-08-21T03:31:29;12.40;;;6.20;;
6306;SDS011;3186;54.062;9.962;2023-08-21T03:33:56;9.03;;;6.07;;
6306;SDS011;3186;54.062;9.962;2023-08-21T03:36:22;9.63;;;6.23;;
6306;SDS011;3186;54.062;9.962;2023-08-21T03:38:57;9.70;;;6.70;;
6306;SDS011;3186;54.062;9.962;2023-08-21T03:41:27;11.77;;;6.87;;
6306;SDS011;3186;54.062;9.962;2023-08-21T03:43:53;13.33;;;7.03;;
6306;SDS011;3186;54.062;9.962;2023-08-21T03:46:19;7.03;;;6.33;;
6306;SDS011;3186;54.062;9.962;2023-08-21T03:48:45;8.70;;;6.10;;
6306;SDS011;3186;54.062;9.962;2023-08-21T03:51:10;7.37;;;6.13;;
6306;SDS011;3186;54.062;9.962;2023-08-21T03:53:36;8.93;;;6.47;;
6306;SDS011;3186;54.062;9.962;2023-08-21T03:56:02;8.73;;;6.53;;
6306;SDS011;3186;54.062;9.962;2023-08-21T03:58:28;8.40;;;6.77;;
6306;SDS011;3186;54.062;9.962;2023-08-21T04:00:53;9.33;;;6.17;;
6306;SDS011;3186;54.062;9.962;2023-08-21T04:03:20;6.20;;;5.60;;
6306;SDS011;3186;54.062;9.962;2023-08-21T04:05:46;7.77;;;6.33;;
6306;SDS011;3186;54.062;9.962;2023-08-21T04:08:12;7.73;;;6.03;;
6306;SDS011;3186;54.062;9.962;2023-08-21T04:10:38;7.60;;;6.80;;
6306;SDS011;3186;54.062;9.962;2023-08-21T04:13:04;8.40;;;6.07;;
6306;SDS011;3186;54.062;9.962;2023-08-21T04:15:30;7.03;;;6.33;;
6306;SDS011;3186;54.062;9.962;2023-08-21T04:17:56;7.60;;;6.17;;
6306;SDS011;3186;54.062;9.962;2023-08-21T04:20:22;7.63;;;6.30;;
6306;SDS011;3186;54.062;9.962;2023-08-21T04:22:48;9.80;;;6.10;;
6306;SDS011;3186;54.062;9.962;2023-08-21T04:25:14;7.67;;;6.13;;
6306;SDS011;3186;54.062;9.962;2023-08-21T04:27:41;6.40;;;5.33;;
6306;SDS011;3186;54.062;9.962;2023-08-21T04:30:07;7.53;;;5.80;;
6306;SDS011;3186;54.062;9.962;2023-08-21T04:32:34;6.47;;;5.53;;
6306;SDS011;3186;54.062;9.962;2023-08-21T04:35:00;7.83;;;5.60;;
6306;SDS011;3186;54.062;9.962;2023-08-21T04:37:26;10.53;;;6.23;;
6306;SDS011;3186;54.062;9.962;2023-08-21T04:42:43;6.17;;;5.43;;
6306;SDS011;3186;54.062;9.962;2023-08-21T04:45:09;7.60;;;6.03;;
6306;SDS011;3186;54.062;9.962;2023-08-21T04:47:37;7.73;;;6.00;;
6306;SDS011;3186;54.062;9.962;2023-08-21T04:50:03;9.53;;;5.80;;
6306;SDS011;3186;54.062;9.962;2023-08-21T04:52:29;6.93;;;5.60;;
6306;SDS011;3186;54.062;9.962;2023-08-21T04:54:55;7.33;;;6.53;;
6306;SDS011;3186;54.062;9.962;2023-08-21T04:57:21;7.27;;;6.03;;
6306;SDS011;3186;54.062;9.962;2023-08-21T04:59:48;7.70;;;6.63;;
6306;SDS011;3186;54.062;9.962;2023-08-21T05:02:14;7.60;;;5.87;;
6306;SDS011;3186;54.062;9.962;2023-08-21T05:04:40;7.60;;;6.47;;
6306;SDS011;3186;54.062;9.962;2023-08-21T05:07:06;9.67;;;7.07;;
6306;SDS011;3186;54.062;9.962;2023-08-21T05:09:32;7.97;;;7.10;;
6306;SDS011;3186;54.062;9.962;2023-08-21T05:11:58;7.03;;;5.83;;
6306;SDS011;3186;54.062;9.962;2023-08-21T05:14:24;6.33;;;5.73;;
6306;SDS011;3186;54.062;9.962;2023-08-21T05:16:50;6.43;;;5.83;;
6306;SDS011;3186;54.062;9.962;2023-08-21T05:19:17;5.93;;;5.23;;
6306;SDS011;3186;54.062;9.962;2023-08-21T05:21:43;5.10;;;4.50;;
6306;SDS011;3186;54.062;9.962;2023-08-21T05:24:10;7.07;;;6.37;;
6306;SDS011;3186;54.062;9.962;2023-08-21T05:26:39;8.20;;;6.17;;
6306;SDS011;3186;54.062;9.962;2023-08-21T05:29:05;5.70;;;5.10;;
6306;SDS011;3186;54.062;9.962;2023-08-21T05:31:31;6.43;;;5.20;;
6306;SDS011;3186;54.062;9.962;2023-08-21T05:33:57;7.70;;;4.80;;
6306;SDS011;3186;54.062;9.962;2023-08-21T05:36:23;5.17;;;4.67;;
6306;SDS011;3186;54.062;9.962;2023-08-21T05:38:50;4.97;;;4.53;;
6306;SDS011;3186;54.062;9.962;2023-08-21T05:41:17;4.90;;;3.97;;
6306;SDS011;3186;54.062;9.962;2023-08-21T05:43:44;4.53;;;3.80;;
6306;SDS011;3186;54.062;9.962;2023-08-21T05:46:12;4.43;;;3.73;;
6306;SDS011;3186;54.062;9.962;2023-08-21T05:48:38;4.87;;;3.70;;
6306;SDS011;3186;54.062;9.962;2023-08-21T05:51:03;4.03;;;3.63;;
6306;SDS011;3186;54.062;9.962;2023-08-21T05:53:30;3.80;;;3.50;;
6306;SDS011;3186;54.062;9.962;2023-08-21T05:55:56;7.13;;;3.63;;
6306;SDS011;3186;54.062;9.962;2023-08-21T05:58:22;3.50;;;3.20;;
6306;SDS011;3186;54.062;9.962;2023-08-21T06:00:48;4.13;;;3.20;;
6306;SDS011;3186;54.062;9.962;2023-08-21T06:03:15;3.30;;;3.00;;
6306;SDS011;3186;54.062;9.962;2023-08-21T06:06:16;3.47;;;2.87;;
6306;SDS011;3186;54.062;9.962;2023-08-21T06:08:42;5.67;;;3.40;;
6306;SDS011;3186;54.062;9.962;2023-08-21T06:11:08;3.43;;;2.90;;
6306;SDS011;3186;54.062;9.962;2023-08-21T06:13:34;4.97;;;3.13;;
6306;SDS011;3186;54.062;9.962;2023-08-21T06:16:01;3.60;;;2.67;;
6306;SDS011;3186;54.062;9.962;2023-08-21T06:18:27;3.73;;;2.57;;
6306;SDS011;3186;54.062;9.962;2023-08-21T06:20:54;6.33;;;4.03;;
6306;SDS011;3186;54.062;9.962;2023-08-21T06:23:21;5.77;;;3.90;;
6306;SDS011;3186;54.062;9.962;2023-08-21T06:25:47;3.30;;;3.00;;
6306;SDS011;3186;54.062;9.962;2023-08-21T06:28:14;3.73;;;3.10;;
6306;SDS011;3186;54.062;9.962;2023-08-21T06:30:40;4.07;;;3.50;;
6306;SDS011;3186;54.062;9.962;2023-08-21T06:33:06;4.60;;;4.10;;
6306;SDS011;3186;54.062;9.962;2023-08-21T06:35:32;5.83;;;2.67;;
6306;SDS011;3186;54.062;9.962;2023-08-21T06:38:01;4.57;;;3.83;;
6306;SDS011;3186;54.062;9.962;2023-08-21T06:40:27;2.60;;;2.40;;
6306;SDS011;3186;54.062;9.962;2023-08-21T06:42:52;3.10;;;2.80;;
6306;SDS011;3186;54.062;9.962;2023-08-21T06:45:21;5.43;;;3.83;;
6306;SDS011;3186;54.062;9.962;2023-08-21T06:47:48;4.50;;;2.57;;
6306;SDS011;3186;54.062;9.962;2023-08-21T06:50:15;9.13;;;4.33;;
6306;SDS011;3186;54.062;9.962;2023-08-21T06:52:41;12.77;;;5.17;;
6306;SDS011;3186;54.062;9.962;2023-08-21T06:55:07;9.87;;;4.43;;
6306;SDS011;3186;54.062;9.962;2023-08-21T06:57:33;7.83;;;3.27;;
6306;SDS011;3186;54.062;9.962;2023-08-21T06:59:59;6.33;;;2.87;;
6306;SDS011;3186;54.062;9.962;2023-08-21T07:02:25;11.57;;;5.37;;
6306;SDS011;3186;54.062;9.962;2023-08-21T07:04:50;8.00;;;3.10;;
6306;SDS011;3186;54.062;9.962;2023-08-21T07:07:17;6.77;;;2.93;;
6306;SDS011;3186;54.062;9.962;2023-08-21T07:09:43;13.80;;;5.00;;
6306;SDS011;3186;54.062;9.962;2023-08-21T07:12:08;8.00;;;5.07;;
6306;SDS011;3186;54.062;9.962;2023-08-21T07:14:34;7.07;;;4.70;;
6306;SDS011;3186;54.062;9.962;2023-08-21T07:17:00;8.20;;;4.90;;
6306;SDS011;3186;54.062;9.962;2023-08-21T07:19:26;4.00;;;2.43;;
6306;SDS011;3186;54.062;9.962;2023-08-21T07:21:51;9.37;;;3.53;;
6306;SDS011;3186;54.062;9.962;2023-08-21T07:24:17;8.87;;;3.47;;
6306;SDS011;3186;54.062;9.962;2023-08-21T07:26:43;7.27;;;3.57;;
6306;SDS011;3186;54.062;9.962;2023-08-21T07:29:09;7.13;;;3.57;;
6306;SDS011;3186;54.062;9.962;2023-08-21T07:31:35;8.37;;;3.13;;
6306;SDS011;3186;54.062;9.962;2023-08-21T07:34:00;4.63;;;2.20;;
6306;SDS011;3186;54.062;9.962;2023-08-21T07:36:26;4.67;;;2.33;;
6306;SDS011;3186;54.062;9.962;2023-08-21T07:38:52;8.23;;;3.30;;
6306;SDS011;3186;54.062;9.962;2023-08-21T07:41:18;4.57;;;2.60;;
6306;SDS011;3186;54.062;9.962;2023-08-21T07:43:44;7.03;;;2.70;;
6306;SDS011;3186;54.062;9.962;2023-08-21T07:46:10;7.13;;;3.07;;
6306;SDS011;3186;54.062;9.962;2023-08-21T07:48:41;6.13;;;2.63;;
6306;SDS011;3186;54.062;9.962;2023-08-21T07:51:07;5.93;;;2.50;;
6306;SDS011;3186;54.062;9.962;2023-08-21T07:53:33;7.13;;;2.43;;
6306;SDS011;3186;54.062;9.962;2023-08-21T07:56:00;10.50;;;2.87;;
6306;SDS011;3186;54.062;9.962;2023-08-21T07:58:26;6.37;;;2.40;;
6306;SDS011;3186;54.062;9.962;2023-08-21T08:00:52;5.87;;;2.47;;
6306;SDS011;3186;54.062;9.962;2023-08-21T08:03:18;9.63;;;3.53;;
6306;SDS011;3186;54.062;9.962;2023-08-21T08:05:44;5.80;;;2.33;;
6306;SDS011;3186;54.062;9.962;2023-08-21T08:08:10;12.53;;;3.27;;
6306;SDS011;3186;54.062;9.962;2023-08-21T08:10:39;7.27;;;2.53;;
6306;SDS011;3186;54.062;9.962;2023-08-21T08:13:06;7.20;;;2.43;;
6306;SDS011;3186;54.062;9.962;2023-08-21T08:15:32;6.73;;;2.47;;
6306;SDS011;3186;54.062;9.962;2023-08-21T08:18:00;7.03;;;2.10;;
6306;SDS011;3186;54.062;9.962;2023-08-21T08:20:26;9.37;;;2.70;;
6306;SDS011;3186;54.062;9.962;2023-08-21T08:22:52;8.27;;;2.60;;
6306;SDS011;3186;54.062;9.962;2023-08-21T08:25:18;8.20;;;2.67;;
6306;SDS011;3186;54.062;9.962;2023-08-21T08:27:44;7.80;;;2.43;;
6306;SDS011;3186;54.062;9.962;2023-08-21T08:30:10;5.53;;;2.17;;
6306;SDS011;3186;54.062;9.962;2023-08-21T08:32:36;7.93;;;2.87;;
6306;SDS011;3186;54.062;9.962;2023-08-21T08:35:02;7.20;;;2.10;;
6306;SDS011;3186;54.062;9.962;2023-08-21T08:37:28;8.57;;;2.43;;
6306;SDS011;3186;54.062;9.962;2023-08-21T08:39:54;7.93;;;2.43;;
6306;SDS011;3186;54.062;9.962;2023-08-21T08:42:20;9.93;;;2.87;;
6306;SDS011;3186;54.062;9.962;2023-08-21T08:44:45;7.63;;;2.53;;
6306;SDS011;3186;54.062;9.962;2023-08-21T08:47:12;7.33;;;2.13;;
6306;SDS011;3186;54.062;9.962;2023-08-21T08:49:39;6.97;;;2.40;;
6306;SDS011;3186;54.062;9.962;2023-08-21T08:52:05;5.63;;;2.47;;
6306;SDS011;3186;54.062;9.962;2023-08-21T08:54:32;4.53;;;2.03;;
6306;SDS011;3186;54.062;9.962;2023-08-21T08:57:00;5.33;;;1.80;;
6306;SDS011;3186;54.062;9.962;2023-08-21T08:59:31;6.63;;;2.07;;
6306;SDS011;3186;54.062;9.962;2023-08-21T09:01:57;5.13;;;2.13;;
6306;SDS011;3186;54.062;9.962;2023-08-21T09:04:23;4.17;;;2.40;;
6306;SDS011;3186;54.062;9.962;2023-08-21T09:06:49;5.07;;;2.03;;
6306;SDS011;3186;54.062;9.962;2023-08-21T09:09:15;3.50;;;1.87;;
6306;SDS011;3186;54.062;9.962;2023-08-21T09:11:45;6.10;;;2.10;;
6306;SDS011;3186;54.062;9.962;2023-08-21T09:14:12;3.47;;;1.70;;
6306;SDS011;3186;54.062;9.962;2023-08-21T09:16:41;5.50;;;2.37;;
6306;SDS011;3186;54.062;9.962;2023-08-21T09:19:26;5.43;;;2.10;;
6306;SDS011;3186;54.062;9.962;2023-08-21T09:21:51;5.87;;;1.83;;
6306;SDS011;3186;54.062;9.962;2023-08-21T09:24:17;5.30;;;2.00;;
6306;SDS011;3186;54.062;9.962;2023-08-21T09:26:43;3.63;;;1.80;;
6306;SDS011;3186;54.062;9.962;2023-08-21T09:29:09;5.77;;;2.60;;
6306;SDS011;3186;54.062;9.962;2023-08-21T09:31:36;8.20;;;2.47;;
6306;SDS011;3186;54.062;9.962;2023-08-21T09:34:02;4.60;;;2.10;;
6306;SDS011;3186;54.062;9.962;2023-08-21T09:36:32;6.30;;;2.43;;
6306;SDS011;3186;54.062;9.962;2023-08-21T09:38:59;4.17;;;2.30;;
6306;SDS011;3186;54.062;9.962;2023-08-21T09:41:25;10.97;;;2.53;;
6306;SDS011;3186;54.062;9.962;2023-08-21T09:43:52;5.47;;;2.30;;
6306;SDS011;3186;54.062;9.962;2023-08-21T09:46:23;6.43;;;2.30;;
6306;SDS011;3186;54.062;9.962;2023-08-21T09:48:51;4.40;;;2.07;;
6306;SDS011;3186;54.062;9.962;2023-08-21T09:51:17;7.90;;;2.10;;
6306;SDS011;3186;54.062;9.962;2023-08-21T09:53:44;7.00;;;2.40;;
6306;SDS011;3186;54.062;9.962;2023-08-21T09:56:11;7.20;;;2.73;;
6306;SDS011;3186;54.062;9.962;2023-08-21T09:58:37;4.43;;;2.10;;
6306;SDS011;3186;54.062;9.962;2023-08-21T10:01:06;7.10;;;2.30;;
6306;SDS011;3186;54.062;9.962;2023-08-21T10:03:42;4.83;;;2.00;;
6306;SDS011;3186;54.062;9.962;2023-08-21T10:06:12;7.20;;;2.03;;
6306;SDS011;3186;54.062;9.962;2023-08-21T10:08:44;5.47;;;1.80;;
6306;SDS011;3186;54.062;9.962;2023-08-21T10:11:13;4.17;;;2.00;;
6306;SDS011;3186;54.062;9.962;2023-08-21T10:13:39;3.77;;;2.00;;
6306;SDS011;3186;54.062;9.962;2023-08-21T10:16:06;4.00;;;1.90;;
6306;SDS011;3186;54.062;9.962;2023-08-21T10:18:33;6.63;;;1.77;;
6306;SDS011;3186;54.062;9.962;2023-08-21T10:21:10;4.70;;;1.80;;
6306;SDS011;3186;54.062;9.962;2023-08-21T10:23:42;2.03;;;1.70;;
6306;SDS011;3186;54.062;9.962;2023-08-21T10:26:11;3.80;;;1.60;;
6306;SDS011;3186;54.062;9.962;2023-08-21T10:33:53;7.83;;;1.90;;
6306;SDS011;3186;54.062;9.962;2023-08-21T10:42:33;3.10;;;1.83;;
6306;SDS011;3186;54.062;9.962;2023-08-21T10:49:43;3.83;;;1.47;;
6306;SDS011;3186;54.062;9.962;2023-08-21T10:52:09;5.23;;;1.90;;
6306;SDS011;3186;54.062;9.962;2023-08-21T10:54:46;4.07;;;1.80;;
6306;SDS011;3186;54.062;9.962;2023-08-21T10:57:19;5.07;;;1.83;;
6306;SDS011;3186;54.062;9.962;2023-08-21T11:02:37;3.27;;;1.57;;
6306;SDS011;3186;54.062;9.962;2023-08-21T11:05:04;3.10;;;1.47;;
6306;SDS011;3186;54.062;9.962;2023-08-21T11:07:38;2.90;;;1.53;;
6306;SDS011;3186;54.062;9.962;2023-08-21T11:10:12;2.40;;;1.13;;
6306;SDS011;3186;54.062;9.962;2023-08-21T11:12:56;2.33;;;1.50;;
6306;SDS011;3186;54.062;9.962;2023-08-21T11:15:23;7.33;;;1.50;;
6306;SDS011;3186;54.062;9.962;2023-08-21T11:18:00;2.47;;;1.53;;
6306;SDS011;3186;54.062;9.962;2023-08-21T11:22:59;5.13;;;1.70;;
6306;SDS011;3186;54.062;9.962;2023-08-21T11:25:28;7.33;;;1.40;;
6306;SDS011;3186;54.062;9.962;2023-08-21T11:27:55;2.63;;;1.50;;
6306;SDS011;3186;54.062;9.962;2023-08-21T11:30:24;3.07;;;1.13;;
6306;SDS011;3186;54.062;9.962;2023-08-21T11:33:04;2.63;;;1.43;;
6306;SDS011;3186;54.062;9.962;2023-08-21T11:35:34;2.60;;;1.03;;
6306;SDS011;3186;54.062;9.962;2023-08-21T11:38:00;1.83;;;1.30;;
6306;SDS011;3186;54.062;9.962;2023-08-21T11:40:26;3.27;;;1.13;;
6306;SDS011;3186;54.062;9.962;2023-08-21T11:42:51;2.80;;;1.57;;
6306;SDS011;3186;54.062;9.962;2023-08-21T11:45:20;3.00;;;1.00;;
6306;SDS011;3186;54.062;9.962;2023-08-21T11:47:46;2.67;;;1.37;;
6306;SDS011;3186;54.062;9.962;2023-08-21T11:50:12;3.47;;;1.60;;
6306;SDS011;3186;54.062;9.962;2023-08-21T11:52:43;3.53;;;1.13;;
6306;SDS011;3186;54.062;9.962;2023-08-21T11:55:09;3.50;;;1.40;;
6306;SDS011;3186;54.062;9.962;2023-08-21T11:57:51;2.67;;;1.30;;
6306;SDS011;3186;54.062;9.962;2023-08-21T12:00:18;4.20;;;1.50;;
6306;SDS011;3186;54.062;9.962;2023-08-21T12:02:54;3.03;;;1.40;;
6306;SDS011;3186;54.062;9.962;2023-08-21T12:05:24;3.27;;;1.13;;
6306;SDS011;3186;54.062;9.962;2023-08-21T12:07:51;1.37;;;1.00;;
6306;SDS011;3186;54.062;9.962;2023-08-21T12:10:28;2.07;;;1.27;;
6306;SDS011;3186;54.062;9.962;2023-08-21T12:12:54;1.90;;;1.13;;
6306;SDS011;3186;54.062;9.962;2023-08-21T12:15:21;4.93;;;1.37;;
6306;SDS011;3186;54.062;9.962;2023-08-21T12:17:46;1.57;;;1.30;;
6306;SDS011;3186;54.062;9.962;2023-08-21T12:20:12;3.20;;;1.47;;
6306;SDS011;3186;54.062;9.962;2023-08-21T12:22:39;1.57;;;1.10;;
6306;SDS011;3186;54.062;9.962;2023-08-21T12:25:07;3.47;;;1.30;;
6306;SDS011;3186;54.062;9.962;2023-08-21T12:27:34;1.67;;;1.03;;
6306;SDS011;3186;54.062;9.962;2023-08-21T12:30:00;2.33;;;1.30;;
6306;SDS011;3186;54.062;9.962;2023-08-21T12:32:25;2.33;;;1.33;;
6306;SDS011;3186;54.062;9.962;2023-08-21T12:34:51;1.60;;;1.03;;
6306;SDS011;3186;54.062;9.962;2023-08-21T12:37:17;3.83;;;1.30;;
6306;SDS011;3186;54.062;9.962;2023-08-21T12:39:43;1.43;;;1.10;;
6306;SDS011;3186;54.062;9.962;2023-08-21T12:42:09;2.30;;;1.30;;
6306;SDS011;3186;54.062;9.962;2023-08-21T12:44:35;1.87;;;1.03;;
6306;SDS011;3186;54.062;9.962;2023-08-21T12:47:01;1.10;;;1.00;;
6306;SDS011;3186;54.062;9.962;2023-08-21T12:49:26;3.97;;;1.53;;
6306;SDS011;3186;54.062;9.962;2023-08-21T12:51:52;3.67;;;1.37;;
6306;SDS011;3186;54.062;9.962;2023-08-21T12:54:18;4.30;;;1.43;;
6306;SDS011;3186;54.062;9.962;2023-08-21T12:56:44;3.57;;;1.20;;
6306;SDS011;3186;54.062;9.962;2023-08-21T12:59:10;4.20;;;1.30;;
6306;SDS011;3186;54.062;9.962;2023-08-21T13:01:36;1.23;;;1.10;;
6306;SDS011;3186;54.062;9.962;2023-08-21T13:04:02;2.17;;;1.20;;
6306;SDS011;3186;54.062;9.962;2023-08-21T13:06:28;2.13;;;1.17;;
6306;SDS011;3186;54.062;9.962;2023-08-21T13:08:54;2.07;;;1.20;;
6306;SDS011;3186;54.062;9.962;2023-08-21T13:11:20;2.40;;;1.27;;
6306;SDS011;3186;54.062;9.962;2023-08-21T13:13:46;2.27;;;1.10;;
6306;SDS011;3186;54.062;9.962;2023-08-21T13:16:12;2.23;;;1.30;;
6306;SDS011;3186;54.062;9.962;2023-08-21T13:18:38;2.03;;;0.90;;
6306;SDS011;3186;54.062;9.962;2023-08-21T13:21:04;4.30;;;1.47;;
6306;SDS011;3186;54.062;9.962;2023-08-21T13:23:30;2.83;;;1.00;;
6306;SDS011;3186;54.062;9.962;2023-08-21T13:25:56;1.40;;;1.00;;
6306;SDS011;3186;54.062;9.962;2023-08-21T13:28:23;4.37;;;1.20;;
6306;SDS011;3186;54.062;9.962;2023-08-21T13:30:49;3.67;;;1.20;;
6306;SDS011;3186;54.062;9.962;2023-08-21T13:33:15;3.17;;;1.33;;
6306;SDS011;3186;54.062;9.962;2023-08-21T13:35:43;4.17;;;1.37;;
6306;SDS011;3186;54.062;9.962;2023-08-21T13:38:10;3.63;;;1.33;;
6306;SDS011;3186;54.062;9.962;2023-08-21T13:40:37;1.33;;;1.10;;
6306;SDS011;3186;54.062;9.962;2023-08-21T13:43:03;3.00;;;1.00;;
6306;SDS011;3186;54.062;9.962;2023-08-21T13:45:29;1.57;;;1.20;;
6306;SDS011;3186;54.062;9.962;2023-08-21T13:47:55;1.10;;;1.10;;
6306;SDS011;3186;54.062;9.962;2023-08-21T13:50:21;1.40;;;1.10;;
6306;SDS011;3186;54.062;9.962;2023-08-21T13:52:47;2.00;;;1.33;;
6306;SDS011;3186;54.062;9.962;2023-08-21T13:55:13;1.70;;;1.20;;
6306;SDS011;3186;54.062;9.962;2023-08-21T13:57:39;3.13;;;1.30;;
6306;SDS011;3186;54.062;9.962;2023-08-21T14:00:06;1.53;;;1.10;;
6306;SDS011;3186;54.062;9.962;2023-08-21T14:02:33;3.33;;;1.30;;
6306;SDS011;3186;54.062;9.962;2023-08-21T14:05:00;1.43;;;1.20;;
6306;SDS011;3186;54.062;9.962;2023-08-21T14:07:26;2.77;;;1.50;;
6306;SDS011;3186;54.062;9.962;2023-08-21T14:09:52;1.60;;;1.10;;
6306;SDS011;3186;54.062;9.962;2023-08-21T14:12:18;2.63;;;1.33;;
6306;SDS011;3186;54.062;9.962;2023-08-21T14:14:44;2.47;;;1.60;;
6306;SDS011;3186;54.062;9.962;2023-08-21T14:17:10;3.00;;;1.23;;
6306;SDS011;3186;54.062;9.962;2023-08-21T14:19:36;2.13;;;1.30;;
6306;SDS011;3186;54.062;9.962;2023-08-21T14:22:01;2.87;;;1.57;;
6306;SDS011;3186;54.062;9.962;2023-08-21T14:24:28;1.87;;;1.37;;
6306;SDS011;3186;54.062;9.962;2023-08-21T14:26:54;5.90;;;1.60;;
6306;SDS011;3186;54.062;9.962;2023-08-21T14:29:19;2.37;;;1.37;;
6306;SDS011;3186;54.062;9.962;2023-08-21T14:31:45;6.50;;;1.67;;
6306;SDS011;3186;54.062;9.962;2023-08-21T14:34:12;3.60;;;1.53;;
6306;SDS011;3186;54.062;9.962;2023-08-21T14:36:39;2.87;;;1.10;;
6306;SDS011;3186;54.062;9.962;2023-08-21T14:39:05;5.03;;;1.37;;
6306;SDS011;3186;54.062;9.962;2023-08-21T14:41:31;2.13;;;1.27;;
6306;SDS011;3186;54.062;9.962;2023-08-21T14:43:57;3.57;;;1.47;;
6306;SDS011;3186;54.062;9.962;2023-08-21T14:46:23;2.30;;;1.40;;
6306;SDS011;3186;54.062;9.962;2023-08-21T14:48:48;4.37;;;1.47;;
6306;SDS011;3186;54.062;9.962;2023-08-21T14:51:14;1.67;;;1.40;;
6306;SDS011;3186;54.062;9.962;2023-08-21T14:53:40;2.27;;;1.50;;
6306;SDS011;3186;54.062;9.962;2023-08-21T14:56:06;4.23;;;1.30;;
6306;SDS011;3186;54.062;9.962;2023-08-21T14:58:32;3.80;;;1.40;;
6306;SDS011;3186;54.062;9.962;2023-08-21T15:00:58;2.20;;;1.50;;
6306;SDS011;3186;54.062;9.962;2023-08-21T15:03:23;4.00;;;1.60;;
6306;SDS011;3186;54.062;9.962;2023-08-21T15:05:49;1.40;;;1.23;;
6306;SDS011;3186;54.062;9.962;2023-08-21T15:08:16;6.30;;;1.40;;
6306;SDS011;3186;54.062;9.962;2023-08-21T15:10:42;2.13;;;1.60;;
6306;SDS011;3186;54.062;9.962;2023-08-21T15:13:08;1.97;;;1.20;;
6306;SDS011;3186;54.062;9.962;2023-08-21T15:15:33;3.00;;;1.23;;
6306;SDS011;3186;54.062;9.962;2023-08-21T15:18:00;2.67;;;1.13;;
6306;SDS011;3186;54.062;9.962;2023-08-21T15:20:26;2.23;;;1.40;;
6306;SDS011;3186;54.062;9.962;2023-08-21T15:22:51;2.10;;;1.37;;
6306;SDS011;3186;54.062;9.962;2023-08-21T15:25:17;3.03;;;1.37;;
6306;SDS011;3186;54.062;9.962;2023-08-21T15:27:43;3.33;;;1.47;;
6306;SDS011;3186;54.062;9.962;2023-08-21T15:30:10;2.77;;;1.50;;
6306;SDS011;3186;54.062;9.962;2023-08-21T15:32:36;7.00;;;1.63;;
6306;SDS011;3186;54.062;9.962;2023-08-21T15:35:01;2.83;;;1.33;;
6306;SDS011;3186;54.062;9.962;2023-08-21T15:37:29;4.93;;;1.67;;